Terminal Aerodrome Forecast
Issued by NWS Portland, ME

Home | Current Version | Previous Version | Text Only | Print | Product List | Glossary On
Versions: 1 2 3 4 5 6 7 8 9 10 11 12 13 14 15 16 17 18 19 20 21 22 23 24 25 26 27
000
FTUS41 KGYX 021130 AAC
TAFPWM
TAF AMD
KPWM 021130Z 0212/0306 VRB03KT 1/4SM FG OVC002
      TEMPO 0212/0213 3SM BR BKN009
     FM021300 17007KT P6SM SCT100
     FM030100 VRB03KT 4SM BR BKN100
     FM030200 27005KT P6SM SCT020
      TEMPO 0302/0305 3SM -TSRA BR BKN020CB
     FM030500 VRB03KT 3SM BR BKN005=

USA.gov is the U.S. government's official web portal to all federal, state and local government web resources and services.